Time;durP1;ratioP1;P1;durP2;ratioP2;P2;SDS_P1;SDS_P2;PMS_P1;PMS_P2;Temp;Humidity;BMP_temperature;BMP_pressure;BME280_temperature;BME280_humidity;BME280_pressure;Samples;Min_cycle;Max_cycle;Signal;HPM_P1;HPM_P2
2021/03/02 00:06:24;;;;;;;3.60;2.25;;;;;;;5.07;62.48;100610.22;5997427;23;20019;-79
2021/03/02 00:16:12;;;;;;;4.18;2.22;;;;;;;5.29;62.83;100638.19;5338709;23;20052;-80
2021/03/02 00:18:48;;;;;;;3.03;2.50;;;;;;;5.26;62.85;100638.59;4902984;29;20578;-79
2021/03/02 00:21:20;;;;;;;3.45;2.08;;;;;;;5.23;62.27;100631.03;4980407;23;20104;-79
2021/03/02 00:24:09;;;;;;;2.47;2.03;;;;;;;5.26;62.79;100637.78;4918957;29;20418;-79
2021/03/02 00:27:08;;;;;;;3.22;2.75;;;;;;;5.26;62.53;100645.72;4926432;23;20041;-80
2021/03/02 00:30:36;;;;;;;2.92;2.33;;;;;;;5.25;62.46;100652.06;4850350;29;20049;-81
2021/03/02 00:33:55;;;;;;;5.30;2.00;;;;;;;5.25;62.64;100641.47;4838823;29;20073;-81
2021/03/02 00:36:21;;;;;;;2.40;1.95;;;;;;;5.25;62.48;100642.28;4804930;29;20046;-80
2021/03/02 00:38:52;;;;;;;3.38;1.90;;;;;;;5.28;62.34;100643.69;4814450;29;20098;-81
2021/03/02 00:41:17;;;;;;;3.25;2.38;;;;;;;5.23;62.58;100631.03;4815304;29;20162;-80
2021/03/02 00:43:43;;;;;;;2.85;2.28;;;;;;;5.21;62.27;100630.44;4824179;29;20106;-78
2021/03/02 00:46:08;;;;;;;1.92;1.77;;;;;;;5.17;62.67;100631.03;4807589;29;20041;-79
2021/03/02 00:48:34;;;;;;;4.72;2.17;;;;;;;5.16;62.39;100634.69;4822244;29;20050;-79
2021/03/02 00:51:00;;;;;;;2.63;1.85;;;;;;;5.11;62.40;100632.66;4807097;29;20129;-79
2021/03/02 00:53:33;;;;;;;3.90;2.08;;;;;;;5.09;63.00;100635.50;4808203;29;20437;-81
2021/03/02 01:02:40;;;;;;;2.78;1.90;;;;;;;4.93;63.67;100631.38;4810210;29;20038;-79
2021/03/02 01:05:07;;;;;;;2.13;1.67;;;;;;;4.89;63.73;100630.13;4867977;29;20045;-79
2021/03/02 01:07:47;;;;;;;2.75;1.52;;;;;;;4.85;63.56;100623.59;4866755;29;20029;-80
2021/03/02 01:10:14;;;;;;;2.28;1.75;;;;;;;4.85;64.13;100633.41;4881416;29;20056;-79
2021/03/02 01:15:57;;;;;;;2.42;1.40;;;;;;;4.83;63.92;100630.94;5359251;23;20068;-81
2021/03/02 01:21:40;;;;;;;1.88;1.48;;;;;;;4.81;64.18;100632.97;5053524;23;20621;-77
2021/03/02 01:24:06;;;;;;;2.95;1.80;;;;;;;4.78;64.42;100625.41;4901463;29;20103;-77
2021/03/02 01:26:35;;;;;;;1.77;1.45;;;;;;;4.82;64.58;100629.28;4919402;29;20034;-80
2021/03/02 01:31:39;;;;;;;1.80;1.40;;;;;;;4.79;64.50;100606.66;4853335;27;20449;-79
2021/03/02 01:34:26;;;;;;;1.85;1.35;;;;;;;4.84;64.37;100623.81;4916753;29;20032;-80
2021/03/02 01:40:16;;;;;;;1.67;1.17;;;;;;;4.89;63.98;100627.47;4910182;29;20469;-78
2021/03/02 01:42:42;;;;;;;3.35;1.85;;;;;;;4.90;63.85;100623.81;4899414;29;20031;-78
2021/03/02 01:45:11;;;;;;;1.77;1.08;;;;;;;4.91;63.53;100616.69;4915933;29;20028;-79
2021/03/02 02:34:03;;;;;;;1.67;1.08;;;;;;;4.84;64.26;100634.41;5735177;23;20605;-80
2021/03/02 02:52:37;;;;;;;2.38;1.15;;;;;;;4.85;64.31;100644.00;6015602;23;20055;31
2021/03/02 02:55:02;;;;;;;2.08;1.05;;;;;;;4.86;64.04;100648.25;5692091;23;20056;-77
2021/03/02 02:57:34;;;;;;;1.58;1.20;;;;;;;4.87;64.70;100641.94;4897048;29;20040;-81
2021/03/02 03:00:40;;;;;;;1.63;1.25;;;;;;;4.86;64.34;100643.81;4884475;29;20410;-81
2021/03/02 03:13:06;;;;;;;2.38;1.60;;;;;;;4.81;64.19;100662.94;4937578;29;20510;-82
2021/03/02 03:15:34;;;;;;;1.92;1.40;;;;;;;4.82;64.55;100661.09;4888866;29;20068;-78
2021/03/02 03:18:06;;;;;;;2.83;0.88;;;;;;;4.82;64.66;100653.16;4878216;29;20035;-81
2021/03/02 03:20:32;;;;;;;1.95;1.38;;;;;;;4.78;65.08;100659.88;4886595;29;20025;-82
2021/03/02 03:25:34;;;;;;;2.47;1.33;;;;;;;4.77;65.05;100663.53;4902680;29;20053;-78
2021/03/02 03:28:02;;;;;;;2.85;1.27;;;;;;;4.74;65.50;100661.28;4897836;29;20418;-78
2021/03/02 03:30:31;;;;;;;1.38;0.77;;;;;;;4.72;65.23;100655.34;4865392;29;20021;-78
2021/03/02 03:33:12;;;;;;;;;;;;;;;4.73;64.83;100667.59;4902191;29;20044;-81
2021/03/02 03:46:14;;;;;;;1.45;1.35;;;;;;;4.64;65.29;100666.94;5121216;23;20047;-82
2021/03/02 04:25:10;;;;;;;2.13;1.33;;;;;;;4.87;64.41;100671.13;5669508;23;20139;-81
2021/03/02 04:34:57;;;;;;;2.63;1.67;;;;;;;4.45;65.05;100656.03;5146909;23;20092;-84
2021/03/02 04:37:55;;;;;;;2.92;1.60;;;;;;;4.41;65.68;100660.09;4922150;29;20047;-83
2021/03/02 04:54:41;;;;;;;2.92;1.95;;;;;;;4.39;65.80;100672.72;5377447;23;20053;-81
2021/03/02 04:57:08;;;;;;;1.80;1.63;;;;;;;4.50;65.58;100681.94;4917497;29;20048;-81
2021/03/02 04:59:33;;;;;;;3.05;2.00;;;;;;;4.55;65.27;100684.81;4919821;29;20028;-79
2021/03/02 05:08:22;;;;;;;3.10;1.83;;;;;;;4.62;65.60;100676.91;5960437;23;20023;-81
2021/03/02 05:19:34;;;;;;;;;;;;;;;4.80;65.83;100694.97;6013449;23;20030;-81
2021/03/02 05:25:18;;;;;;;3.08;1.35;;;;;;;5.00;64.94;100699.53;5989676;23;20031;-81
2021/03/02 05:28:16;;;;;;;2.78;1.73;;;;;;;5.09;64.51;100698.31;5632515;23;20090;31
2021/03/02 05:43:41;;;;;;;3.55;2.10;;;;;;;5.37;62.99;100702.69;6015265;23;20331;31
2021/03/02 05:46:07;;;;;;;3.13;2.05;;;;;;;5.35;62.67;100702.09;4865680;29;20058;-79
2021/03/02 06:01:41;;;;;;;6.35;4.00;;;;;;;5.51;61.65;100714.16;5391907;23;20063;-82
2021/03/02 06:25:22;;;;;;;5.63;2.70;;;;;;;5.80;60.73;100685.59;4907695;27;20028;-82
2021/03/02 06:33:02;;;;;;;4.43;2.20;;;;;;;6.20;60.09;100712.19;4859069;29;20028;-80
2021/03/02 06:48:02;;;;;;;7.70;2.90;;;;;;;6.14;57.44;100711.19;5230954;23;20114;-80
2021/03/02 06:57:04;;;;;;;4.65;2.42;;;;;;;6.08;56.87;100712.81;5522474;23;20071;-83
2021/03/02 06:59:35;;;;;;;6.15;3.00;;;;;;;6.10;57.48;100709.94;4909447;29;20044;-80
2021/03/02 07:02:01;;;;;;;5.68;2.53;;;;;;;6.14;57.04;100713.00;5279292;23;20048;-81
2021/03/02 07:04:28;;;;;;;5.25;2.78;;;;;;;6.23;57.34;100714.44;4904598;29;20039;-82
2021/03/02 07:06:56;;;;;;;2.17;1.67;;;;;;;6.25;55.08;100707.91;4903061;29;20044;-80
2021/03/02 07:09:22;;;;;;;1.85;1.70;;;;;;;6.29;56.39;100718.13;4902642;29;20029;-81
2021/03/02 07:11:48;;;;;;;1.83;1.48;;;;;;;6.39;56.19;100710.53;5130353;23;20052;-79
2021/03/02 07:24:57;;;;;;;2.22;1.63;;;;;;;6.66;54.38;100699.84;4956603;23;20056;-81
2021/03/02 07:30:13;;;;;;;3.90;1.50;;;;;;;6.71;54.48;100711.50;5570106;23;20056;-80
2021/03/02 07:33:17;;;;;;;2.10;1.38;;;;;;;6.66;54.64;100708.63;5211990;23;20056;-81
2021/03/02 07:36:02;;;;;;;2.42;1.92;;;;;;;6.63;55.11;100698.41;5767765;23;20043;-79
2021/03/02 07:41:02;;;;;;;3.55;2.33;;;;;;;6.80;55.55;100703.25;5023853;23;20061;-79
2021/03/02 10:39:00;;;;;;;4.22;3.05;;;;;;;8.02;51.76;100609.13;4667777;30;20050;-81
2021/03/02 10:42:20;;;;;;;4.35;3.08;;;;;;;7.92;51.44;100604.31;4648986;30;20097;-83
2021/03/02 10:44:57;;;;;;;4.22;2.83;;;;;;;7.99;51.79;100601.56;4630269;30;20071;-82
2021/03/02 11:05:27;;;;;;;9.13;3.72;;;;;;;8.42;51.07;100552.72;5047764;23;20094;-89
2021/03/02 11:37:21;;;;;;;8.77;4.55;;;;;;;9.09;49.84;100505.63;4828071;29;20070;-80
2021/03/02 11:39:46;;;;;;;5.60;3.63;;;;;;;9.13;48.65;100499.59;4810090;29;20038;-81
2021/03/02 11:42:11;;;;;;;6.32;3.10;;;;;;;9.11;48.04;100500.88;4829462;29;20082;-81
2021/03/02 11:44:37;;;;;;;6.30;3.47;;;;;;;9.13;47.18;100493.47;4837948;29;20026;-83
2021/03/02 11:47:02;;;;;;;3.65;2.72;;;;;;;9.17;48.11;100493.78;4822762;29;20042;-80
2021/03/02 11:49:28;;;;;;;4.75;3.42;;;;;;;9.21;48.08;100479.75;4836601;29;20038;-79
2021/03/02 11:51:54;;;;;;;5.88;3.17;;;;;;;9.27;47.35;100476.16;4837333;29;20042;-83
2021/03/02 11:54:20;;;;;;;4.18;3.40;;;;;;;9.27;48.52;100480.69;4838494;29;20030;-85
2021/03/02 11:57:18;;;;;;;3.20;2.90;;;;;;;9.33;47.98;100485.09;4839984;29;20045;-88
2021/03/02 11:59:45;;;;;;;5.75;3.40;;;;;;;9.37;47.78;100480.91;4838663;29;20091;-77
2021/03/02 12:02:11;;;;;;;5.55;3.50;;;;;;;9.38;47.78;100477.19;4836918;29;20098;-88
2021/03/02 12:05:01;;;;;;;4.75;3.22;;;;;;;9.37;47.80;100475.56;4822301;29;20891;-84
2021/03/02 12:07:27;;;;;;;4.05;3.28;;;;;;;9.40;47.94;100464.44;4823593;29;20031;-88
2021/03/02 12:09:52;;;;;;;6.50;3.67;;;;;;;9.44;47.75;100470.94;4837809;29;20102;-79
2021/03/02 12:12:18;;;;;;;5.15;3.50;;;;;;;9.51;47.82;100470.00;4821732;29;20030;-79
2021/03/02 12:14:43;;;;;;;8.43;4.25;;;;;;;9.53;47.51;100467.91;4821734;29;20027;-77
2021/03/02 12:17:09;;;;;;;3.60;2.72;;;;;;;9.51;47.22;100461.97;4821783;29;20031;-77
2021/03/02 12:19:34;;;;;;;5.28;3.17;;;;;;;9.54;46.99;100457.00;4822161;29;20027;-79
2021/03/02 12:22:00;;;;;;;3.67;2.88;;;;;;;9.54;46.70;100459.66;4806388;29;20046;-78
2021/03/02 12:24:25;;;;;;;4.90;4.18;;;;;;;9.56;46.57;100446.88;4821913;29;20038;-78
2021/03/02 12:26:51;;;;;;;3.10;2.80;;;;;;;9.51;47.09;100441.44;4822195;29;20102;-78
2021/03/02 12:29:17;;;;;;;5.55;3.72;;;;;;;9.53;47.03;100446.53;4822611;29;20035;-78
2021/03/02 12:31:42;;;;;;;4.20;3.80;;;;;;;9.52;46.55;100436.91;4821342;29;20070;-79
2021/03/02 12:34:09;;;;;;;5.40;4.07;;;;;;;9.57;46.92;100440.50;4822184;29;20037;-79
2021/03/02 12:36:34;;;;;;;4.93;3.80;;;;;;;9.61;47.44;100444.31;4821215;29;20034;-79
2021/03/02 12:39:00;;;;;;;9.13;4.05;;;;;;;9.66;47.10;100435.59;4822189;29;20038;-78
2021/03/02 12:41:25;;;;;;;4.00;3.60;;;;;;;9.68;46.92;100440.72;4821626;29;20046;-78
2021/03/02 12:43:51;;;;;;;5.05;3.33;;;;;;;9.72;47.01;100431.19;4802320;29;20114;-78
2021/03/02 12:46:16;;;;;;;5.22;4.07;;;;;;;9.75;46.77;100428.88;4821192;29;20122;-79
2021/03/02 12:48:41;;;;;;;6.00;3.30;;;;;;;9.77;46.54;100424.06;4820161;29;20041;-78
2021/03/02 12:51:07;;;;;;;4.47;3.10;;;;;;;9.80;46.82;100414.78;4820717;29;20034;-77
2021/03/02 12:53:32;;;;;;;5.95;2.70;;;;;;;9.90;47.00;100422.22;4821998;29;20129;-80
2021/03/02 12:55:58;;;;;;;8.88;3.10;;;;;;;9.89;46.39;100416.03;4820760;29;20045;-83
2021/03/02 12:58:24;;;;;;;4.40;3.20;;;;;;;9.87;46.45;100420.00;4805969;29;20045;-78
2021/03/02 13:00:49;;;;;;;4.40;3.40;;;;;;;9.89;46.77;100409.88;4813617;29;20046;-80
2021/03/02 13:03:15;;;;;;;5.38;3.45;;;;;;;9.96;46.72;100409.75;4821265;29;20030;-83
2021/03/02 13:05:41;;;;;;;5.22;3.50;;;;;;;10.00;45.49;100413.56;4835755;29;20038;-82
2021/03/02 13:08:07;;;;;;;3.67;3.08;;;;;;;10.06;45.66;100408.06;4838868;29;20061;-87
2021/03/02 13:10:33;;;;;;;4.65;2.58;;;;;;;10.04;45.23;100404.81;4838749;29;20061;-90
2021/03/02 13:13:01;;;;;;;3.67;2.75;;;;;;;10.10;45.52;100395.84;4819811;29;20029;-83
2021/03/02 13:15:27;;;;;;;3.75;3.03;;;;;;;10.14;45.21;100396.19;4820800;29;20481;-87
2021/03/02 13:17:53;;;;;;;7.45;4.38;;;;;;;10.20;45.31;100394.41;4820639;29;20064;-91
2021/03/02 13:20:19;;;;;;;6.15;3.55;;;;;;;10.22;45.00;100389.66;4814705;29;20076;-91
2021/03/02 13:22:45;;;;;;;4.85;3.28;;;;;;;10.26;44.90;100385.44;4787103;29;20398;-84
2021/03/02 13:25:12;;;;;;;4.00;3.03;;;;;;;10.28;44.60;100380.66;4787991;29;20061;-90
2021/03/02 13:27:39;;;;;;;5.90;3.45;;;;;;;10.33;44.34;100386.09;4802434;29;20054;-86
2021/03/02 13:30:08;;;;;;;3.93;3.10;;;;;;;10.30;43.04;100381.25;4803341;29;20125;-84
2021/03/02 13:32:55;;;;;;;;;;;;;;;10.31;42.85;100385.50;4821695;29;20141;-82
2021/03/02 13:35:21;;;;;;;3.88;3.15;;;;;;;10.24;42.75;100371.47;4819202;29;19917;-89
2021/03/02 13:38:27;;;;;;;7.75;3.50;;;;;;;10.19;43.47;100379.41;4809841;29;20073;-92
2021/03/02 13:41:11;;;;;;;5.10;3.20;;;;;;;10.12;42.54;100376.09;4823484;29;20561;-86
2021/03/02 13:43:44;;;;;;;4.22;3.20;;;;;;;9.99;43.83;100371.84;4802469;29;20027;-84
2021/03/02 13:46:10;;;;;;;4.85;3.22;;;;;;;9.94;44.29;100378.72;4819056;29;20026;-78
2021/03/02 13:49:15;;;;;;;4.80;3.15;;;;;;;9.91;44.01;100378.38;4840110;29;20033;-86
2021/03/02 13:51:46;;;;;;;4.05;2.65;;;;;;;9.88;43.59;100373.53;4810685;29;20054;-84
2021/03/02 13:54:14;;;;;;;5.97;3.03;;;;;;;9.82;43.68;100363.78;4819868;29;20624;-83
2021/03/02 13:56:42;;;;;;;4.65;2.78;;;;;;;9.85;43.77;100361.47;4820019;29;20110;-86
2021/03/02 13:59:28;;;;;;;3.42;2.58;;;;;;;9.81;43.56;100357.63;4820198;29;20065;-84
2021/03/02 14:01:56;;;;;;;4.47;2.92;;;;;;;9.81;44.57;100351.47;4820724;29;20037;-89
2021/03/02 14:04:22;;;;;;;3.78;2.97;;;;;;;9.87;44.51;100351.31;4820049;29;20034;-81
2021/03/02 14:06:48;;;;;;;3.50;2.90;;;;;;;9.85;43.95;100348.09;4822161;29;20038;-80
2021/03/02 14:09:15;;;;;;;3.22;2.60;;;;;;;9.84;44.92;100348.31;4819935;29;20537;-85
2021/03/02 14:11:41;;;;;;;8.82;2.88;;;;;;;9.87;45.00;100345.19;4808249;29;20035;-86
2021/03/02 14:14:07;;;;;;;4.10;2.80;;;;;;;9.84;44.95;100335.78;4810703;29;20039;-89
2021/03/02 14:17:31;;;;;;;4.90;3.38;;;;;;;9.83;44.65;100338.69;4825474;29;20076;-94
2021/03/02 14:20:36;;;;;;;5.38;3.60;;;;;;;9.74;45.17;100327.56;4805492;29;20100;-87
2021/03/02 14:23:15;;;;;;;4.45;3.13;;;;;;;9.78;45.26;100332.19;4810670;29;20030;-88
2021/03/02 14:25:41;;;;;;;6.63;3.92;;;;;;;9.78;45.24;100329.53;4819472;29;20042;-89
2021/03/02 14:28:32;;;;;;;5.47;4.00;;;;;;;9.84;45.34;100326.94;4819415;29;20203;-89
2021/03/02 14:30:58;;;;;;;6.25;3.78;;;;;;;9.85;45.68;100321.38;4815279;29;20047;-88
2021/03/02 14:33:24;;;;;;;20.20;11.65;;;;;;;9.89;45.00;100316.38;4804190;29;20094;-87
2021/03/02 14:35:50;;;;;;;9.52;5.63;;;;;;;9.91;44.96;100320.41;4817624;29;20033;-86
2021/03/02 14:38:15;;;;;;;7.05;4.00;;;;;;;9.91;44.94;100315.06;4814264;29;20520;-89
2021/03/02 14:40:57;;;;;;;5.82;4.15;;;;;;;9.95;44.84;100312.72;4830968;29;20026;-90
2021/03/02 14:43:24;;;;;;;4.95;3.13;;;;;;;9.94;44.08;100311.09;4812257;29;20573;-83
2021/03/02 14:45:53;;;;;;;4.53;3.35;;;;;;;9.96;44.07;100310.84;4820174;29;20039;-89
2021/03/02 14:49:07;;;;;;;4.13;3.20;;;;;;;9.95;43.84;100312.72;4816718;29;20140;-92
2021/03/02 14:51:43;;;;;;;6.32;3.28;;;;;;;9.98;44.93;100301.53;4829402;29;20121;-84
2021/03/02 14:54:10;;;;;;;4.45;3.17;;;;;;;10.00;44.27;100302.13;4816937;29;20066;-86
2021/03/02 14:56:37;;;;;;;5.07;3.88;;;;;;;9.99;44.45;100299.69;4821941;29;20031;-85
2021/03/02 14:59:05;;;;;;;4.95;3.15;;;;;;;10.04;43.80;100299.78;4822206;29;20026;-83
2021/03/02 15:01:34;;;;;;;3.53;2.63;;;;;;;10.07;43.65;100304.63;4822973;29;20090;-87
2021/03/02 15:03:59;;;;;;;4.38;3.30;;;;;;;10.06;43.51;100301.16;4821975;29;20125;-86
2021/03/02 15:06:26;;;;;;;3.45;2.83;;;;;;;10.09;44.51;100300.69;4838465;29;20151;-88
2021/03/02 15:08:53;;;;;;;4.75;3.45;;;;;;;10.14;43.99;100294.59;4817466;29;20511;-82
2021/03/02 15:11:20;;;;;;;3.67;3.03;;;;;;;10.14;44.12;100304.50;4829197;29;20041;-84
2021/03/02 15:13:46;;;;;;;3.47;2.83;;;;;;;10.12;43.16;100301.25;4822324;29;20133;-85
2021/03/02 15:16:13;;;;;;;5.95;3.45;;;;;;;10.11;43.71;100303.13;4841135;29;20061;-86
2021/03/02 15:18:39;;;;;;;5.75;3.40;;;;;;;10.10;44.81;100304.97;4834525;29;20099;-91
2021/03/02 15:21:05;;;;;;;6.10;3.05;;;;;;;10.14;44.15;100304.50;4822096;29;20038;-89
2021/03/02 15:23:32;;;;;;;4.38;3.28;;;;;;;10.11;43.81;100305.78;4822415;29;20041;-86
2021/03/02 15:25:57;;;;;;;5.57;3.42;;;;;;;10.07;43.43;100296.59;4805925;29;20087;-85
2021/03/02 15:28:28;;;;;;;5.35;3.38;;;;;;;10.05;43.86;100304.06;4820535;29;20046;-83
2021/03/02 15:30:59;;;;;;;5.15;3.42;;;;;;;10.02;44.25;100304.53;4812829;29;20046;-83
2021/03/02 15:33:25;;;;;;;5.40;3.80;;;;;;;9.98;44.21;100300.75;4821874;29;20026;-84
2021/03/02 15:35:51;;;;;;;4.50;3.65;;;;;;;9.96;44.24;100297.50;4820795;29;20041;-83
2021/03/02 15:38:16;;;;;;;7.72;3.55;;;;;;;9.93;44.35;100301.47;4819719;29;20037;-81
2021/03/02 15:40:47;;;;;;;6.28;3.35;;;;;;;9.93;44.41;100304.13;4821340;29;20042;-85
2021/03/02 15:43:13;;;;;;;3.63;3.25;;;;;;;9.92;44.39;100300.66;4821675;29;20493;-85
2021/03/02 15:45:39;;;;;;;5.40;3.50;;;;;;;9.89;43.54;100297.66;4821732;29;20046;-85
2021/03/02 15:48:05;;;;;;;4.88;3.45;;;;;;;9.85;44.13;100299.19;4821560;29;20046;-86
2021/03/02 15:50:30;;;;;;;5.53;3.05;;;;;;;9.81;43.87;100301.50;4821682;29;20031;-85
2021/03/02 15:52:57;;;;;;;5.40;3.30;;;;;;;9.76;43.94;100302.25;4821184;29;20041;-79
2021/03/02 15:55:25;;;;;;;5.50;4.13;;;;;;;9.70;44.11;100303.19;4836279;29;20034;-81
2021/03/02 15:57:51;;;;;;;6.67;4.57;;;;;;;9.66;44.49;100299.38;4822221;29;20534;-84
2021/03/02 16:10:44;;;;;;;46.03;18.02;;;;;;;9.50;45.12;100308.16;4819976;29;20067;-88
2021/03/02 16:16:36;;;;;;;23.80;10.82;;;;;;;9.37;45.30;100299.34;4782900;30;20046;-84
2021/03/02 16:19:47;;;;;;;22.38;12.63;;;;;;;9.30;45.61;100296.00;4784986;29;20126;-85
2021/03/02 16:25:36;;;;;;;32.28;17.25;;;;;;;9.24;45.53;100303.13;4773639;30;20077;-87
2021/03/02 16:56:07;;;;;;;95.13;49.70;;;;;;;8.87;47.55;100311.41;4755394;30;20581;-83
2021/03/02 16:59:23;;;;;;;65.03;35.17;;;;;;;8.78;47.86;100302.16;4760763;30;20067;-81
2021/03/02 17:02:23;;;;;;;42.60;23.27;;;;;;;8.70;47.60;100302.50;4749631;30;20052;-88
2021/03/02 17:05:30;;;;;;;57.40;28.10;;;;;;;8.62;48.36;100311.66;4854341;29;20046;-83
2021/03/02 17:08:20;;;;;;;51.17;29.75;;;;;;;8.54;48.28;100304.00;4808405;29;20039;-83
2021/03/02 17:20:53;;;;;;;103.93;52.08;;;;;;;8.42;49.44;100310.09;4760912;30;20447;-83
2021/03/02 17:33:54;;;;;;;74.10;41.58;;;;;;;8.21;50.45;100318.66;4704807;30;20052;-83
2021/03/02 17:36:33;;;;;;;65.68;32.55;;;;;;;8.18;50.12;100320.72;4692548;30;20050;-86
2021/03/02 17:39:14;;;;;;;86.80;41.95;;;;;;;8.16;50.17;100316.66;4697267;30;20049;-85
2021/03/02 17:41:56;;;;;;;42.13;23.33;;;;;;;8.10;50.38;100317.56;4683837;30;20056;-84
2021/03/02 17:44:24;;;;;;;57.65;27.90;;;;;;;8.07;50.06;100316.19;4709356;30;20053;-87
2021/03/02 17:47:12;;;;;;;26.50;14.40;;;;;;;7.95;49.85;100302.81;4719318;30;20034;-88
2021/03/02 17:50:05;;;;;;;32.15;18.65;;;;;;;7.97;50.88;100311.41;4731379;30;20374;-84
2021/03/02 17:56:00;;;;;;;71.15;34.63;;;;;;;7.75;51.33;100316.44;4755211;30;20082;-81
2021/03/02 18:05:23;;;;;;;32.53;16.42;;;;;;;7.52;51.36;100317.94;4736326;30;19961;-82
2021/03/02 18:10:52;;;;;;;62.53;27.77;;;;;;;7.47;51.99;100325.78;4898604;24;20141;-83
2021/03/02 18:13:20;;;;;;;57.38;27.90;;;;;;;7.42;52.25;100317.66;4858997;29;20029;-85
2021/03/02 18:15:46;;;;;;;62.95;31.70;;;;;;;7.42;51.88;100322.16;4844897;29;20038;-80
2021/03/02 18:18:21;;;;;;;68.90;29.52;;;;;;;7.35;52.38;100327.59;4848713;29;20071;-83
2021/03/02 18:21:04;;;;;;;80.80;38.08;;;;;;;7.40;52.60;100326.88;4846486;29;20109;-80
2021/03/02 18:23:30;;;;;;;68.68;34.63;;;;;;;7.39;53.19;100319.97;4841124;29;20065;-79
2021/03/02 18:25:55;;;;;;;62.78;34.65;;;;;;;7.37;53.05;100322.81;4840749;29;20120;-78
2021/03/02 18:28:21;;;;;;;81.28;43.97;;;;;;;7.36;53.09;100315.88;4846216;29;20486;-80
2021/03/02 18:30:47;;;;;;;104.80;50.63;;;;;;;7.34;53.68;100323.28;4843860;29;20062;-80
2021/03/02 18:33:13;;;;;;;59.97;33.17;;;;;;;7.33;52.93;100324.31;4844731;29;20397;-80
2021/03/02 18:36:13;;;;;;;80.60;38.70;;;;;;;7.33;53.11;100319.00;4847030;29;20034;-82
2021/03/02 18:45:27;;;;;;;94.70;46.08;;;;;;;7.27;53.39;100315.38;4823403;29;20061;-81
2021/03/02 18:48:56;;;;;;;99.07;49.80;;;;;;;7.25;53.38;100309.47;4845667;29;20038;-84
2021/03/02 18:51:43;;;;;;;99.25;49.85;;;;;;;7.20;54.21;100310.13;4821772;29;20091;-81
2021/03/02 18:54:14;;;;;;;113.35;56.10;;;;;;;7.16;54.17;100313.47;4813564;29;20049;-80
2021/03/02 18:56:47;;;;;;;142.60;62.45;;;;;;;7.10;54.25;100299.19;4843506;29;20112;-80
2021/03/02 18:59:13;;;;;;;143.15;65.88;;;;;;;7.03;54.03;100298.44;4828605;29;20129;-79
2021/03/02 19:01:39;;;;;;;85.53;44.75;;;;;;;6.97;54.70;100304.66;4828210;29;20034;-80
2021/03/02 19:04:04;;;;;;;75.10;41.25;;;;;;;6.88;54.45;100315.59;4843393;29;20046;-81
2021/03/02 19:06:30;;;;;;;68.95;37.28;;;;;;;6.82;54.85;100310.34;4826637;29;20477;-79
2021/03/02 19:08:56;;;;;;;63.75;32.88;;;;;;;6.74;54.93;100311.44;4828888;29;20052;-80
2021/03/02 19:11:21;;;;;;;74.93;37.40;;;;;;;6.66;55.25;100312.50;4827741;29;20041;-79
2021/03/02 19:13:47;;;;;;;72.18;35.45;;;;;;;6.59;55.24;100305.63;4821860;29;20085;-79
2021/03/02 19:16:12;;;;;;;60.85;31.98;;;;;;;6.50;55.47;100308.56;4822268;29;20038;-79
2021/03/02 19:18:41;;;;;;;51.55;27.38;;;;;;;6.39;55.68;100309.28;4810554;29;20042;-80
2021/03/02 19:29:10;;;;;;;39.50;21.25;;;;;;;6.12;56.34;100312.13;4779076;30;20426;-81
2021/03/02 19:31:54;;;;;;;38.20;19.73;;;;;;;6.03;56.40;100308.09;4784462;29;20522;-80
2021/03/02 19:34:19;;;;;;;34.97;19.75;;;;;;;5.99;56.61;100314.88;4807693;29;20121;-81
2021/03/02 19:36:44;;;;;;;27.10;16.33;;;;;;;5.93;56.72;100311.19;4831116;29;20109;-82
2021/03/02 19:39:18;;;;;;;28.70;17.00;;;;;;;5.89;56.55;100308.16;4818793;29;20110;-81
2021/03/02 19:41:43;;;;;;;33.80;19.45;;;;;;;5.85;56.91;100308.81;4800980;29;20038;-80
2021/03/02 19:44:09;;;;;;;36.38;20.48;;;;;;;5.81;56.99;100311.09;4801875;29;20042;-80
2021/03/02 19:46:34;;;;;;;39.92;20.92;;;;;;;5.75;56.88;100312.75;4811444;29;20045;-80
2021/03/02 19:49:01;;;;;;;36.97;19.48;;;;;;;5.72;57.35;100307.84;4809242;29;20098;-80
2021/03/02 19:55:16;;;;;;;44.28;21.40;;;;;;;5.68;57.12;100317.25;4806299;29;20045;-81
2021/03/02 19:57:59;;;;;;;40.10;22.33;;;;;;;5.65;57.22;100317.72;4815705;29;20039;-79
2021/03/02 20:00:25;;;;;;;41.78;25.38;;;;;;;5.62;57.77;100312.81;4822156;29;20030;-79
2021/03/02 20:02:50;;;;;;;45.58;24.80;;;;;;;5.60;57.87;100322.81;4810267;29;20031;-80
2021/03/02 20:10:30;;;;;;;41.85;25.20;;;;;;;5.46;58.20;100316.75;5809047;23;20076;-81
2021/03/02 20:12:58;;;;;;;51.00;26.55;;;;;;;5.50;58.11;100323.25;4809670;29;20055;-78
2021/03/02 20:15:24;;;;;;;48.25;25.55;;;;;;;5.47;58.39;100318.38;4827018;29;20127;-78
2021/03/02 20:24:12;;;;;;;48.38;24.30;;;;;;;5.35;58.23;100310.25;4823009;29;20053;-79
2021/03/02 20:26:37;;;;;;;40.90;22.55;;;;;;;5.33;58.46;100303.53;4823369;29;20042;-79
2021/03/02 20:29:05;;;;;;;44.33;23.73;;;;;;;5.33;58.79;100311.50;4824652;29;20033;-80
2021/03/02 20:31:37;;;;;;;49.10;22.77;;;;;;;5.31;58.77;100317.03;4830613;29;20066;-80
2021/03/02 20:34:03;;;;;;;43.30;22.75;;;;;;;5.31;58.45;100309.06;4806218;29;20494;-81
2021/03/02 20:36:30;;;;;;;52.38;25.23;;;;;;;5.29;58.60;100309.25;4824326;29;20524;-81
2021/03/02 20:39:00;;;;;;;;;;;;;;;5.27;58.67;100313.16;4817005;29;20519;-82
2021/03/02 20:54:00;;;;;;;69.93;35.75;;;;;;;4.88;58.57;100309.59;4874314;29;20080;-83
2021/03/02 21:02:32;;;;;;;55.55;27.02;;;;;;;4.61;59.29;100315.75;5929143;23;20012;-79
2021/03/02 21:04:57;;;;;;;54.67;29.63;;;;;;;4.57;59.18;100306.56;4804525;29;20046;-78
2021/03/02 21:07:23;;;;;;;57.42;28.77;;;;;;;4.51;59.52;100312.69;4806810;29;20030;-77
2021/03/02 21:09:48;;;;;;;57.17;27.73;;;;;;;4.46;59.69;100304.53;4822734;29;20099;-78
2021/03/02 21:12:15;;;;;;;49.03;25.48;;;;;;;4.38;59.74;100296.78;4991306;24;20053;-81
2021/03/02 22:02:50;;;;;;;52.08;26.00;;;;;;;3.62;61.98;100278.34;5910098;24;20001;31
2021/03/02 22:05:16;;;;;;;69.22;28.77;;;;;;;3.57;61.93;100277.34;4826499;29;20117;-78
2021/03/02 22:07:41;;;;;;;48.15;25.00;;;;;;;3.45;62.53;100272.59;4829019;29;20130;-78
2021/03/02 22:10:07;;;;;;;50.70;24.75;;;;;;;3.40;62.65;100267.09;4829177;29;20038;-78
2021/03/02 22:12:33;;;;;;;40.85;20.95;;;;;;;3.37;62.61;100267.53;4828455;29;20059;-80
2021/03/02 22:14:58;;;;;;;54.92;25.70;;;;;;;3.31;62.65;100269.13;4811345;29;20478;-80
2021/03/02 22:17:24;;;;;;;45.20;24.23;;;;;;;3.28;62.80;100264.22;4810459;29;20043;-80
2021/03/02 22:19:49;;;;;;;42.03;23.67;;;;;;;3.26;62.94;100268.06;4797419;29;20133;-82
2021/03/02 22:22:52;;;;;;;44.13;22.65;;;;;;;3.25;62.91;100263.78;4811342;29;20102;-82
2021/03/02 22:25:20;;;;;;;46.13;21.05;;;;;;;3.24;63.05;100268.28;4808485;29;20078;-81
2021/03/02 22:27:47;;;;;;;40.50;22.98;;;;;;;3.21;63.01;100263.41;4810738;29;20043;-80
2021/03/02 22:32:47;;;;;;;41.03;21.35;;;;;;;3.20;63.03;100267.03;5005053;23;20061;-79
2021/03/02 22:35:13;;;;;;;34.25;18.50;;;;;;;3.11;63.03;100261.09;4864792;29;20048;-78
2021/03/02 22:37:38;;;;;;;36.35;18.92;;;;;;;3.09;63.08;100262.31;4864136;29;20069;-77
2021/03/02 22:40:05;;;;;;;35.78;19.90;;;;;;;3.06;63.09;100260.88;4847599;29;20026;-78
2021/03/02 22:42:30;;;;;;;39.30;19.45;;;;;;;3.09;63.41;100265.78;4847198;29;20041;-78
2021/03/02 22:44:57;;;;;;;39.67;19.17;;;;;;;3.10;63.03;100266.56;4864981;29;20029;-79
2021/03/02 22:47:45;;;;;;;35.65;20.02;;;;;;;3.11;63.42;100271.66;4864749;29;20065;-81
2021/03/02 22:52:59;;;;;;;37.05;18.15;;;;;;;3.09;63.31;100276.34;5069203;23;20447;-80
2021/03/02 22:55:24;;;;;;;33.08;18.27;;;;;;;3.07;63.34;100285.50;4828374;29;20025;-77
2021/03/02 22:57:50;;;;;;;34.50;18.55;;;;;;;2.98;63.71;100272.44;4827977;29;20042;-79
2021/03/02 23:00:21;;;;;;;87.15;36.00;;;;;;;2.96;63.65;100290.28;4829287;29;20034;-78
2021/03/02 23:02:46;;;;;;;57.58;26.95;;;;;;;2.94;63.97;100275.66;4960604;24;20047;-80
2021/03/02 23:05:12;;;;;;;57.38;27.27;;;;;;;2.92;64.18;100273.22;4809439;29;20038;-79
2021/03/02 23:07:38;;;;;;;44.42;22.08;;;;;;;2.94;63.83;100279.13;4808018;29;20097;-80
2021/03/02 23:12:39;;;;;;;36.60;21.27;;;;;;;2.97;64.04;100285.84;5140697;23;20478;-79
2021/03/02 23:15:07;;;;;;;37.10;20.33;;;;;;;2.97;64.14;100280.56;4825643;29;20045;-79